createdAt,value
2018-08-23T00:00:04.358Z,23.56
2018-08-23T00:01:04.351Z,23.55
2018-08-23T00:02:04.361Z,23.55
2018-08-23T00:03:04.397Z,23.56
2018-08-23T00:04:04.340Z,23.56
2018-08-23T00:05:04.331Z,23.56
2018-08-23T00:06:04.300Z,23.55
2018-08-23T00:07:04.450Z,23.55
2018-08-23T00:08:04.398Z,23.55
2018-08-23T00:09:04.575Z,23.55
2018-08-23T00:10:04.416Z,23.55
2018-08-23T00:11:04.309Z,23.54
2018-08-23T00:12:04.295Z,23.55
2018-08-23T00:13:04.360Z,23.54
2018-08-23T00:14:04.387Z,23.55
2018-08-23T00:15:04.354Z,23.54
2018-08-23T00:16:04.340Z,23.55
2018-08-23T00:17:04.206Z,23.55
2018-08-23T00:18:04.565Z,23.55
2018-08-23T00:19:04.181Z,23.55
2018-08-23T00:20:04.302Z,23.54
2018-08-23T00:21:04.321Z,23.54
2018-08-23T00:22:04.198Z,23.54
2018-08-23T00:23:04.368Z,23.55
2018-08-23T00:24:04.385Z,23.54
2018-08-23T00:25:04.613Z,23.55
2018-08-23T00:26:04.456Z,23.55
2018-08-23T00:27:04.332Z,23.55
2018-08-23T00:28:04.227Z,23.55
2018-08-23T00:29:04.312Z,23.54
2018-08-23T00:30:04.413Z,23.54
2018-08-23T00:31:04.289Z,23.54
2018-08-23T00:32:04.288Z,23.55
2018-08-23T00:33:04.475Z,23.55
2018-08-23T00:34:04.164Z,23.54
2018-08-23T00:35:04.577Z,23.55
2018-08-23T00:36:04.350Z,23.55
2018-08-23T00:37:04.291Z,23.54
2018-08-23T00:38:04.414Z,23.55
2018-08-23T00:39:04.228Z,23.55
2018-08-23T00:40:04.199Z,23.54
2018-08-23T00:41:04.453Z,23.54
2018-08-23T00:42:04.300Z,23.54
2018-08-23T00:43:04.391Z,23.54
2018-08-23T00:44:04.400Z,23.54
2018-08-23T00:45:04.227Z,23.54
2018-08-23T00:46:04.478Z,23.55
2018-08-23T00:47:04.294Z,23.54
2018-08-23T00:48:04.247Z,23.54
2018-08-23T00:49:04.404Z,23.55
2018-08-23T00:50:04.445Z,23.54
2018-08-23T00:51:04.317Z,23.54
2018-08-23T00:52:04.289Z,23.54
2018-08-23T00:53:04.172Z,23.55
2018-08-23T00:54:04.451Z,23.54
2018-08-23T00:55:04.305Z,23.54
2018-08-23T00:56:04.196Z,23.55
2018-08-23T00:57:04.374Z,23.54
2018-08-23T00:58:04.393Z,23.54
2018-08-23T00:59:04.320Z,23.54
2018-08-23T01:00:04.423Z,23.54
2018-08-23T01:01:04.435Z,23.54
2018-08-23T01:02:04.345Z,23.54
2018-08-23T01:03:04.469Z,23.54
2018-08-23T01:04:04.402Z,23.54
2018-08-23T01:05:04.503Z,23.55
2018-08-23T01:06:04.276Z,23.54
2018-08-23T01:07:04.190Z,23.54
2018-08-23T01:08:04.315Z,23.53
2018-08-23T01:09:04.367Z,23.53
2018-08-23T01:10:04.372Z,23.53
2018-08-23T01:11:04.192Z,23.54
2018-08-23T01:12:04.406Z,23.54
2018-08-23T01:13:04.379Z,23.53
2018-08-23T01:14:04.302Z,23.54
2018-08-23T01:15:04.262Z,23.54
2018-08-23T01:16:04.650Z,23.54
2018-08-23T01:17:04.993Z,23.55
2018-08-23T01:18:04.363Z,23.53
2018-08-23T01:19:04.280Z,23.53
2018-08-23T01:20:04.227Z,23.52
2018-08-23T01:21:04.304Z,23.54
2018-08-23T01:22:04.477Z,23.54
2018-08-23T01:23:04.807Z,23.54
2018-08-23T01:24:04.240Z,23.54
2018-08-23T01:25:04.364Z,23.54
2018-08-23T01:26:04.361Z,23.54
2018-08-23T01:27:04.516Z,23.53
2018-08-23T01:28:04.265Z,23.53
2018-08-23T01:29:04.200Z,23.53
2018-08-23T01:30:04.249Z,23.52
2018-08-23T01:31:04.291Z,23.53
2018-08-23T01:32:04.631Z,23.54
2018-08-23T01:33:04.376Z,23.53
2018-08-23T01:34:04.449Z,23.53
2018-08-23T01:35:04.378Z,23.53
2018-08-23T01:36:04.283Z,23.54
2018-08-23T01:37:04.373Z,23.54
2018-08-23T01:38:04.411Z,23.54
2018-08-23T01:39:04.358Z,23.54
2018-08-23T01:40:04.363Z,23.53
2018-08-23T01:41:04.398Z,23.52
2018-08-23T01:42:04.361Z,23.53
2018-08-23T01:43:04.664Z,23.53
2018-08-23T01:44:04.403Z,23.53
2018-08-23T01:45:04.476Z,23.52
2018-08-23T01:46:04.303Z,23.53
2018-08-23T01:47:04.408Z,23.53
2018-08-23T01:48:04.390Z,23.53
2018-08-23T01:49:04.397Z,23.53
2018-08-23T01:50:04.345Z,23.53
2018-08-23T01:51:04.495Z,23.53
2018-08-23T01:52:04.169Z,23.52
2018-08-23T01:53:04.238Z,23.52
2018-08-23T01:54:04.315Z,23.52
2018-08-23T01:55:04.321Z,23.52
2018-08-23T01:56:04.478Z,23.53
2018-08-23T01:57:04.246Z,23.52
2018-08-23T01:58:04.401Z,23.54
2018-08-23T01:59:04.392Z,23.53
2018-08-23T02:00:04.443Z,23.53
2018-08-23T02:01:04.296Z,23.52
2018-08-23T02:02:04.259Z,23.53
2018-08-23T02:03:04.241Z,23.53
2018-08-23T02:04:04.453Z,23.54
2018-08-23T02:05:04.252Z,23.53
2018-08-23T02:06:04.252Z,23.52
2018-08-23T02:07:04.588Z,23.52
2018-08-23T02:08:04.272Z,23.52
2018-08-23T02:09:04.234Z,23.52
2018-08-23T02:10:04.354Z,23.53
2018-08-23T02:11:04.239Z,23.52
2018-08-23T02:12:04.353Z,23.52
2018-08-23T02:13:04.241Z,23.53
2018-08-23T02:14:04.237Z,23.52
2018-08-23T02:15:04.122Z,23.52
2018-08-23T02:16:04.283Z,23.52
2018-08-23T02:17:04.393Z,23.52
2018-08-23T02:18:04.214Z,23.52
2018-08-23T02:19:04.271Z,23.51
2018-08-23T02:20:04.311Z,23.52
2018-08-23T02:21:04.358Z,23.52
2018-08-23T02:22:04.254Z,23.51
2018-08-23T02:23:04.315Z,23.52
2018-08-23T02:24:04.394Z,23.51
2018-08-23T02:25:04.276Z,23.52
2018-08-23T02:26:04.143Z,23.52
2018-08-23T02:27:04.472Z,23.53
2018-08-23T02:28:04.254Z,23.52
2018-08-23T02:29:18.846Z,23.51
2018-08-23T02:30:04.248Z,23.51
2018-08-23T02:31:04.269Z,23.52
2018-08-23T02:32:04.418Z,23.52
2018-08-23T02:33:04.278Z,23.51
2018-08-23T02:34:04.335Z,23.52
2018-08-23T02:35:04.387Z,23.51
2018-08-23T02:36:04.676Z,23.52
2018-08-23T02:37:04.198Z,23.52
2018-08-23T02:38:04.393Z,23.52
2018-08-23T02:39:04.361Z,23.51
2018-08-23T02:40:04.541Z,23.52
2018-08-23T02:41:04.277Z,23.51
2018-08-23T02:42:04.293Z,23.51
2018-08-23T02:43:04.212Z,23.5
2018-08-23T02:44:04.311Z,23.52
2018-08-23T02:45:04.129Z,23.51
2018-08-23T02:46:04.446Z,23.52
2018-08-23T02:47:04.310Z,23.51
2018-08-23T02:48:04.169Z,23.51
2018-08-23T02:49:04.276Z,23.51
2018-08-23T02:50:04.226Z,23.51
2018-08-23T02:51:04.210Z,23.51
2018-08-23T02:52:04.656Z,23.52
2018-08-23T02:53:04.349Z,23.52
2018-08-23T02:54:04.222Z,23.51
2018-08-23T02:55:04.426Z,23.51
2018-08-23T02:56:04.386Z,23.51
2018-08-23T02:57:04.403Z,23.5
2018-08-23T02:58:04.248Z,23.51
2018-08-23T02:59:04.219Z,23.51
2018-08-23T03:00:04.263Z,23.51
2018-08-23T03:01:04.283Z,23.51
2018-08-23T03:02:04.721Z,23.51
2018-08-23T03:03:04.435Z,23.51
2018-08-23T03:04:04.175Z,23.52
2018-08-23T03:05:04.350Z,23.51
2018-08-23T03:06:04.141Z,23.51
2018-08-23T03:07:04.300Z,23.51
2018-08-23T03:08:04.262Z,23.5
2018-08-23T03:09:04.264Z,23.5
2018-08-23T03:10:04.277Z,23.51
2018-08-23T03:11:04.204Z,23.51
2018-08-23T03:12:04.219Z,23.51
2018-08-23T03:13:04.238Z,23.52
2018-08-23T03:14:04.529Z,23.51
2018-08-23T03:15:04.377Z,23.51
2018-08-23T03:16:04.215Z,23.51
2018-08-23T03:17:04.182Z,23.52
2018-08-23T03:18:04.475Z,23.51
2018-08-23T03:19:04.375Z,23.51
2018-08-23T03:20:04.428Z,23.52
2018-08-23T03:21:04.629Z,23.51
2018-08-23T03:22:04.425Z,23.5
2018-08-23T03:23:04.183Z,23.5
2018-08-23T03:24:04.276Z,23.5
2018-08-23T03:25:04.351Z,23.5
2018-08-23T03:26:04.290Z,23.5
2018-08-23T03:27:04.356Z,23.51
2018-08-23T03:28:04.222Z,23.51
2018-08-23T03:29:04.591Z,23.5
2018-08-23T03:30:04.605Z,23.51
2018-08-23T03:31:04.460Z,23.5
2018-08-23T03:32:04.247Z,23.5
2018-08-23T03:33:04.251Z,23.5
2018-08-23T03:34:04.186Z,23.5
2018-08-23T03:35:04.391Z,23.49
2018-08-23T03:36:04.338Z,23.5
2018-08-23T03:37:04.168Z,23.5
2018-08-23T03:38:04.368Z,23.51
2018-08-23T03:39:04.233Z,23.49
2018-08-23T03:40:04.299Z,23.5
2018-08-23T03:41:04.349Z,23.5
2018-08-23T03:42:04.377Z,23.5
2018-08-23T03:43:04.215Z,23.5
2018-08-23T03:44:04.236Z,23.51
2018-08-23T03:45:04.219Z,23.5
2018-08-23T03:46:04.380Z,23.5
2018-08-23T03:47:04.308Z,23.51
2018-08-23T03:48:04.178Z,23.5
2018-08-23T03:49:04.274Z,23.49
2018-08-23T03:50:04.409Z,23.5
2018-08-23T03:51:04.286Z,23.49
2018-08-23T03:52:04.496Z,23.5
2018-08-23T03:53:04.237Z,23.51
2018-08-23T03:54:04.249Z,23.49
2018-08-23T03:55:04.301Z,23.5
2018-08-23T03:56:04.139Z,23.51
2018-08-23T03:57:04.340Z,23.51
2018-08-23T03:58:04.131Z,23.51
2018-08-23T03:59:04.270Z,23.5
2018-08-23T04:00:04.289Z,23.5
2018-08-23T04:01:04.402Z,23.5
2018-08-23T04:02:04.193Z,23.49
2018-08-23T04:03:04.354Z,23.49
2018-08-23T04:04:04.255Z,23.49
2018-08-23T04:05:04.656Z,23.48
2018-08-23T04:06:04.264Z,23.49
2018-08-23T04:07:04.079Z,23.5
2018-08-23T04:08:04.311Z,23.49
2018-08-23T04:09:04.228Z,23.49
2018-08-23T04:10:04.428Z,23.5
2018-08-23T04:11:04.369Z,23.5
2018-08-23T04:12:04.433Z,23.5
2018-08-23T04:13:04.231Z,23.5
2018-08-23T04:14:04.310Z,23.51
2018-08-23T04:15:04.165Z,23.5
2018-08-23T04:16:04.622Z,23.5
2018-08-23T04:17:04.315Z,23.49
2018-08-23T04:18:04.645Z,23.5
2018-08-23T04:19:04.200Z,23.5
2018-08-23T04:20:04.523Z,23.5
2018-08-23T04:21:04.319Z,23.5
2018-08-23T04:22:04.453Z,23.5
2018-08-23T04:23:04.199Z,23.51
2018-08-23T04:24:04.273Z,23.5
2018-08-23T04:25:04.370Z,23.5
2018-08-23T04:26:04.349Z,23.5
2018-08-23T04:27:04.111Z,23.5
2018-08-23T04:28:04.230Z,23.5
2018-08-23T04:29:04.392Z,23.5
2018-08-23T04:30:04.327Z,23.5
2018-08-23T04:31:04.171Z,23.49
2018-08-23T04:32:04.231Z,23.49
2018-08-23T04:33:04.406Z,23.49
2018-08-23T04:34:04.377Z,23.49
2018-08-23T04:35:04.435Z,23.49
2018-08-23T04:36:04.313Z,23.49
2018-08-23T04:37:04.343Z,23.49
2018-08-23T04:38:04.241Z,23.49
2018-08-23T04:39:04.289Z,23.49
2018-08-23T04:40:04.409Z,23.49
2018-08-23T04:41:04.264Z,23.5
2018-08-23T04:42:04.255Z,23.5
2018-08-23T04:43:04.300Z,23.49
2018-08-23T04:44:04.168Z,23.49
2018-08-23T04:45:04.320Z,23.49
2018-08-23T04:46:04.254Z,23.49
2018-08-23T04:47:04.372Z,23.49
2018-08-23T04:48:04.267Z,23.5
2018-08-23T04:49:04.156Z,23.5
2018-08-23T04:50:04.171Z,23.49
2018-08-23T04:51:04.197Z,23.5
2018-08-23T04:52:04.559Z,23.5
2018-08-23T04:53:04.353Z,23.5
2018-08-23T04:54:04.336Z,23.5
2018-08-23T04:55:04.227Z,23.49
2018-08-23T04:56:04.127Z,23.49
2018-08-23T04:57:04.223Z,23.49
2018-08-23T04:58:04.187Z,23.49
2018-08-23T04:59:04.374Z,23.5
2018-08-23T05:00:04.407Z,23.5
2018-08-23T05:01:04.376Z,23.49
2018-08-23T05:02:04.332Z,23.49
2018-08-23T05:03:04.361Z,23.49
2018-08-23T05:04:04.400Z,23.49
2018-08-23T05:05:04.342Z,23.5
2018-08-23T05:06:04.330Z,23.49
2018-08-23T05:07:04.198Z,23.49
2018-08-23T05:08:04.169Z,23.49
2018-08-23T05:09:04.238Z,23.49
2018-08-23T05:10:04.375Z,23.49
2018-08-23T05:11:04.121Z,23.5
2018-08-23T05:12:04.517Z,23.49
2018-08-23T05:13:04.291Z,23.49
2018-08-23T05:14:04.400Z,23.5
2018-08-23T05:15:04.322Z,23.49
2018-08-23T05:16:04.432Z,23.49
2018-08-23T05:17:04.306Z,23.49
2018-08-23T05:18:04.272Z,23.48
2018-08-23T05:19:04.332Z,23.49
2018-08-23T05:20:04.333Z,23.49
2018-08-23T05:21:04.396Z,23.49
2018-08-23T05:22:04.457Z,23.5
2018-08-23T05:23:04.227Z,23.5
2018-08-23T05:24:04.384Z,23.49
2018-08-23T05:25:04.238Z,23.49
2018-08-23T05:26:04.188Z,23.49
2018-08-23T05:27:04.435Z,23.49
2018-08-23T05:28:04.464Z,23.49
2018-08-23T05:29:04.328Z,23.49
2018-08-23T05:30:04.276Z,23.49
2018-08-23T05:31:04.459Z,23.5
2018-08-23T05:32:04.273Z,23.5
2018-08-23T05:33:04.299Z,23.5
2018-08-23T05:34:04.403Z,23.49
2018-08-23T05:35:04.420Z,23.49
2018-08-23T05:36:04.657Z,23.49
2018-08-23T05:37:04.263Z,23.49
2018-08-23T05:38:04.400Z,23.48
2018-08-23T05:39:04.357Z,23.48
2018-08-23T05:40:04.302Z,23.49
2018-08-23T05:41:04.496Z,23.49
2018-08-23T05:42:04.292Z,23.49
2018-08-23T05:43:04.368Z,23.49
2018-08-23T05:44:04.162Z,23.5
2018-08-23T05:45:04.321Z,23.49
2018-08-23T05:46:04.422Z,23.48
2018-08-23T05:47:04.372Z,23.48
2018-08-23T05:48:04.056Z,23.48
2018-08-23T05:49:04.207Z,23.49
2018-08-23T05:50:04.280Z,23.5
2018-08-23T05:51:04.289Z,23.49
2018-08-23T05:52:04.316Z,23.49
2018-08-23T05:53:04.364Z,23.49
2018-08-23T05:54:04.359Z,23.49
2018-08-23T05:55:04.476Z,23.48
2018-08-23T05:56:04.113Z,23.49
2018-08-23T05:57:04.305Z,23.49
2018-08-23T05:58:04.306Z,23.49
2018-08-23T05:59:04.440Z,23.49
2018-08-23T06:00:04.222Z,23.49
2018-08-23T06:01:04.351Z,23.49
2018-08-23T06:02:04.325Z,23.49
2018-08-23T06:03:04.409Z,23.49
2018-08-23T06:04:04.281Z,23.5
2018-08-23T06:05:04.281Z,23.49
2018-08-23T06:06:04.349Z,23.49
2018-08-23T06:07:04.414Z,23.49
2018-08-23T06:08:04.415Z,23.48
2018-08-23T06:09:04.435Z,23.48
2018-08-23T06:10:04.159Z,23.49
2018-08-23T06:11:04.262Z,23.49
2018-08-23T06:12:04.288Z,23.49
2018-08-23T06:13:04.302Z,23.49
2018-08-23T06:14:04.300Z,23.49
2018-08-23T06:15:04.212Z,23.49
2018-08-23T06:16:04.243Z,23.49
2018-08-23T06:17:04.481Z,23.49
2018-08-23T06:18:04.249Z,23.49
2018-08-23T06:19:04.245Z,23.48
2018-08-23T06:20:04.629Z,23.48
2018-08-23T06:21:04.109Z,23.48
2018-08-23T06:22:04.933Z,23.49
2018-08-23T06:23:04.349Z,23.47
2018-08-23T06:24:04.840Z,23.48
2018-08-23T06:25:04.826Z,23.49
2018-08-23T06:26:04.344Z,23.48
2018-08-23T06:27:04.474Z,23.49
2018-08-23T06:28:04.345Z,23.48
2018-08-23T06:29:04.273Z,23.48
2018-08-23T06:30:04.300Z,23.48
2018-08-23T06:31:04.366Z,23.49
2018-08-23T06:32:04.227Z,23.49
2018-08-23T06:33:04.574Z,23.49
2018-08-23T06:34:04.296Z,23.49
2018-08-23T06:35:04.348Z,23.49
2018-08-23T06:36:04.268Z,23.49
2018-08-23T06:37:04.683Z,23.49
2018-08-23T06:38:04.353Z,23.49
2018-08-23T06:39:04.671Z,23.5
2018-08-23T06:40:04.222Z,23.48
2018-08-23T06:41:04.388Z,23.49
2018-08-23T06:42:04.622Z,23.48
2018-08-23T06:43:04.214Z,23.49
2018-08-23T06:44:04.314Z,23.5
2018-08-23T06:45:04.351Z,23.48
2018-08-23T06:46:04.319Z,23.49
2018-08-23T06:47:06.281Z,23.49
2018-08-23T06:48:05.494Z,23.49
2018-08-23T06:49:04.386Z,23.49
2018-08-23T06:50:04.356Z,23.49
2018-08-23T06:51:04.240Z,23.49
2018-08-23T06:52:04.281Z,23.48
2018-08-23T06:53:04.351Z,23.49
2018-08-23T06:54:04.235Z,23.48
2018-08-23T06:55:04.190Z,23.5
2018-08-23T06:56:04.203Z,23.49
2018-08-23T06:57:04.130Z,23.49
2018-08-23T06:58:04.252Z,23.49
2018-08-23T06:59:04.321Z,23.5
2018-08-23T07:00:04.390Z,23.5
2018-08-23T07:01:04.289Z,23.49
2018-08-23T07:02:04.334Z,23.49
2018-08-23T07:03:04.251Z,23.49
2018-08-23T07:04:04.331Z,23.49
2018-08-23T07:05:04.433Z,23.49
2018-08-23T07:06:04.186Z,23.49
2018-08-23T07:07:04.200Z,23.5
2018-08-23T07:08:04.228Z,23.5
2018-08-23T07:09:04.285Z,23.5
2018-08-23T07:10:04.264Z,23.49
2018-08-23T07:11:04.408Z,23.5
2018-08-23T07:12:04.734Z,23.5
2018-08-23T07:13:04.292Z,23.5
2018-08-23T07:14:04.248Z,23.49
2018-08-23T07:15:04.752Z,23.49
2018-08-23T07:16:04.751Z,23.5
2018-08-23T07:17:04.656Z,23.5
2018-08-23T07:18:04.882Z,23.5
2018-08-23T07:19:04.248Z,23.5
2018-08-23T07:20:04.181Z,23.5
2018-08-23T07:21:04.357Z,23.51
2018-08-23T07:22:04.556Z,23.51
2018-08-23T07:23:04.647Z,23.5
2018-08-23T07:24:04.200Z,23.5
2018-08-23T07:25:04.421Z,23.5
2018-08-23T07:26:04.537Z,23.5
2018-08-23T07:27:04.213Z,23.5
2018-08-23T07:28:04.245Z,23.51
2018-08-23T07:29:04.470Z,23.5
2018-08-23T07:30:04.335Z,23.5
2018-08-23T07:31:07.604Z,23.51
2018-08-23T07:32:04.102Z,23.51
2018-08-23T07:33:04.547Z,23.5
2018-08-23T07:34:04.333Z,23.51
2018-08-23T07:35:04.491Z,23.5
2018-08-23T07:36:04.233Z,23.51
2018-08-23T07:37:04.203Z,23.51
2018-08-23T07:38:04.861Z,23.51
2018-08-23T07:39:04.350Z,23.52
2018-08-23T07:40:04.430Z,23.5
2018-08-23T07:41:04.231Z,23.5
2018-08-23T07:42:04.649Z,23.5
2018-08-23T07:43:04.352Z,23.5
2018-08-23T07:44:04.291Z,23.5
2018-08-23T07:45:04.390Z,23.5
2018-08-23T07:46:04.432Z,23.5
2018-08-23T07:47:04.321Z,23.5
2018-08-23T07:48:04.523Z,23.51
2018-08-23T07:49:05.085Z,23.49
2018-08-23T07:50:04.362Z,23.5
2018-08-23T07:51:04.268Z,23.5
2018-08-23T07:52:04.290Z,23.51
2018-08-23T07:53:04.708Z,23.51
2018-08-23T07:54:04.157Z,23.5
2018-08-23T07:55:04.593Z,23.51
2018-08-23T07:56:04.337Z,23.51
2018-08-23T07:57:04.274Z,23.51
2018-08-23T07:58:04.497Z,23.5
2018-08-23T07:59:04.233Z,23.51
2018-08-23T08:00:04.323Z,23.52
2018-08-23T08:01:04.860Z,23.5
2018-08-23T08:02:04.447Z,23.49
2018-08-23T08:03:04.215Z,23.49
2018-08-23T08:04:04.218Z,23.5
2018-08-23T08:05:04.342Z,23.5
2018-08-23T08:06:04.310Z,23.5
2018-08-23T08:07:04.081Z,23.49
2018-08-23T08:08:04.353Z,23.5
2018-08-23T08:09:04.436Z,23.5
2018-08-23T08:10:04.204Z,23.5
2018-08-23T08:11:04.187Z,23.5
2018-08-23T08:12:04.193Z,23.5
2018-08-23T08:13:04.176Z,23.51
2018-08-23T08:14:04.337Z,23.5
2018-08-23T08:15:04.186Z,23.5
2018-08-23T08:16:04.374Z,23.5
2018-08-23T08:17:04.508Z,23.5
2018-08-23T08:18:04.195Z,23.49
2018-08-23T08:19:04.293Z,23.5
2018-08-23T08:20:04.298Z,23.5
2018-08-23T08:21:04.326Z,23.5
2018-08-23T08:22:04.565Z,23.5
2018-08-23T08:23:04.217Z,23.51
2018-08-23T08:24:04.644Z,23.51
2018-08-23T08:25:04.190Z,23.5
2018-08-23T08:26:04.314Z,23.51
2018-08-23T08:27:04.436Z,23.49
2018-08-23T08:28:04.349Z,23.5
2018-08-23T08:29:04.391Z,23.5
2018-08-23T08:30:04.281Z,23.5
2018-08-23T08:31:04.439Z,23.51
2018-08-23T08:32:04.440Z,23.51
2018-08-23T08:33:04.416Z,23.51
2018-08-23T08:34:04.174Z,23.51
2018-08-23T08:35:04.201Z,23.5
2018-08-23T08:36:04.211Z,23.5
2018-08-23T08:37:04.083Z,23.49
2018-08-23T08:38:04.532Z,23.49
2018-08-23T08:39:04.284Z,23.49
2018-08-23T08:40:04.191Z,23.5
2018-08-23T08:41:04.419Z,23.5
2018-08-23T08:42:04.266Z,23.5
2018-08-23T08:43:04.416Z,23.5
2018-08-23T08:44:04.309Z,23.51
2018-08-23T08:45:04.559Z,23.49
2018-08-23T08:46:04.380Z,23.49
2018-08-23T08:47:04.409Z,23.5
2018-08-23T08:48:04.301Z,23.5
2018-08-23T08:49:04.287Z,23.49
2018-08-23T08:50:04.461Z,23.5
2018-08-23T08:51:04.427Z,23.49
2018-08-23T08:52:04.340Z,23.51
2018-08-23T08:53:04.374Z,23.5
2018-08-23T08:54:04.259Z,23.5
2018-08-23T08:55:04.474Z,23.5
2018-08-23T08:56:04.236Z,23.49
2018-08-23T08:57:04.255Z,23.49
2018-08-23T08:58:04.420Z,23.49
2018-08-23T08:59:04.538Z,23.5
2018-08-23T09:00:04.462Z,23.5
2018-08-23T09:01:04.272Z,23.49
2018-08-23T09:02:04.256Z,23.49
2018-08-23T09:03:04.333Z,23.5
2018-08-23T09:04:04.349Z,23.49
2018-08-23T09:05:04.419Z,23.49
2018-08-23T09:06:04.353Z,23.49
2018-08-23T09:07:04.333Z,23.49
2018-08-23T09:08:04.174Z,23.49
2018-08-23T09:09:04.194Z,23.49
2018-08-23T09:10:04.021Z,23.49
2018-08-23T09:11:04.344Z,23.49
2018-08-23T09:12:04.193Z,23.49
2018-08-23T09:13:04.232Z,23.49
2018-08-23T09:14:04.207Z,23.49
2018-08-23T09:15:04.187Z,23.49
2018-08-23T09:16:04.356Z,23.5
2018-08-23T09:17:04.312Z,23.5
2018-08-23T09:18:04.424Z,23.5
2018-08-23T09:19:04.328Z,23.49
2018-08-23T09:20:04.472Z,23.49
2018-08-23T09:21:04.367Z,23.48
2018-08-23T09:22:04.386Z,23.49
2018-08-23T09:23:04.301Z,23.49
2018-08-23T09:24:04.269Z,23.49
2018-08-23T09:25:04.139Z,23.49
2018-08-23T09:26:04.345Z,23.5
2018-08-23T09:27:04.269Z,23.5
2018-08-23T09:28:04.233Z,23.5
2018-08-23T09:29:04.230Z,23.49
2018-08-23T09:30:04.345Z,23.5
2018-08-23T09:31:04.703Z,23.49
2018-08-23T09:32:04.437Z,23.49
2018-08-23T09:33:04.397Z,23.49
2018-08-23T09:34:04.295Z,23.5
2018-08-23T09:35:04.677Z,23.5
2018-08-23T09:36:04.503Z,23.5
2018-08-23T09:37:04.373Z,23.49
2018-08-23T09:38:04.270Z,23.49
2018-08-23T09:39:04.293Z,23.49
2018-08-23T09:40:04.313Z,23.49
2018-08-23T09:41:04.283Z,23.49
2018-08-23T09:42:04.087Z,23.49
2018-08-23T09:43:04.145Z,23.5
2018-08-23T09:44:04.319Z,23.49
2018-08-23T09:45:04.250Z,23.48
2018-08-23T09:46:04.296Z,23.49
2018-08-23T09:47:04.182Z,23.49
2018-08-23T09:48:04.303Z,23.49
2018-08-23T09:49:04.479Z,23.49
2018-08-23T09:50:04.270Z,23.48
2018-08-23T09:51:04.377Z,23.49
2018-08-23T09:52:04.223Z,23.49
2018-08-23T09:53:04.474Z,23.49
2018-08-23T09:54:04.133Z,23.49
2018-08-23T09:55:04.219Z,23.49
2018-08-23T09:56:04.072Z,23.49
2018-08-23T09:57:04.249Z,23.49
2018-08-23T09:58:04.321Z,23.49
2018-08-23T09:59:04.285Z,23.49
2018-08-23T10:00:04.307Z,23.49
2018-08-23T10:01:04.802Z,23.49
2018-08-23T10:02:04.506Z,23.49
2018-08-23T10:03:04.336Z,23.49
2018-08-23T10:04:04.303Z,23.5
2018-08-23T10:05:04.314Z,23.5
2018-08-23T10:06:04.426Z,23.5
2018-08-23T10:07:04.196Z,23.49
2018-08-23T10:08:04.193Z,23.49
2018-08-23T10:09:04.121Z,23.49
2018-08-23T10:10:04.268Z,23.49
2018-08-23T10:11:04.309Z,23.49
2018-08-23T10:12:04.299Z,23.49
2018-08-23T10:13:04.279Z,23.5
2018-08-23T10:14:04.136Z,23.49
2018-08-23T10:15:04.361Z,23.49
2018-08-23T10:16:04.092Z,23.5
2018-08-23T10:17:04.207Z,23.5
2018-08-23T10:18:04.137Z,23.49
2018-08-23T10:19:04.302Z,23.49
2018-08-23T10:20:04.115Z,23.48
2018-08-23T10:21:04.408Z,23.48
2018-08-23T10:22:04.180Z,23.51
2018-08-23T10:23:04.161Z,23.54
2018-08-23T10:24:04.364Z,23.54
2018-08-23T10:25:04.253Z,23.54
2018-08-23T10:26:04.632Z,23.56
2018-08-23T10:27:04.123Z,23.57
2018-08-23T10:28:04.232Z,23.57
2018-08-23T10:29:04.231Z,23.58
2018-08-23T10:30:04.256Z,23.59
2018-08-23T10:31:04.390Z,23.58
2018-08-23T10:32:04.313Z,23.58
2018-08-23T10:33:04.348Z,23.62
2018-08-23T10:34:04.274Z,23.62
2018-08-23T10:35:04.284Z,23.62
2018-08-23T10:36:04.238Z,23.64
2018-08-23T10:37:04.216Z,23.63
2018-08-23T10:38:04.103Z,23.63
2018-08-23T10:39:04.205Z,23.66
2018-08-23T10:40:04.212Z,23.66
2018-08-23T10:41:04.100Z,23.66
2018-08-23T10:42:04.229Z,23.66
2018-08-23T10:43:04.427Z,23.67
2018-08-23T10:44:04.202Z,23.68
2018-08-23T10:45:04.286Z,23.68
2018-08-23T10:46:04.208Z,23.68
2018-08-23T10:47:04.108Z,23.67
2018-08-23T10:48:04.450Z,23.68
2018-08-23T10:49:04.099Z,23.69
2018-08-23T10:50:04.371Z,23.7
2018-08-23T10:51:04.716Z,23.69
2018-08-23T10:52:04.260Z,23.7
2018-08-23T10:53:04.184Z,23.71
2018-08-23T10:54:04.379Z,23.71
2018-08-23T10:55:04.276Z,23.71
2018-08-23T10:56:04.317Z,23.71
2018-08-23T10:57:04.513Z,23.71
2018-08-23T10:58:04.066Z,23.72
2018-08-23T10:59:04.302Z,23.71
2018-08-23T11:00:04.138Z,23.72
2018-08-23T11:01:04.181Z,23.73
2018-08-23T11:02:04.210Z,23.73
2018-08-23T11:03:04.361Z,23.73
2018-08-23T11:04:04.342Z,23.74
2018-08-23T11:05:04.158Z,23.75
2018-08-23T11:06:04.241Z,23.75
2018-08-23T11:07:04.146Z,23.74
2018-08-23T11:08:04.563Z,23.73
2018-08-23T11:09:04.080Z,23.73
2018-08-23T11:10:04.412Z,23.72
2018-08-23T11:11:04.043Z,23.71
2018-08-23T11:12:04.078Z,23.71
2018-08-23T11:13:04.564Z,23.68
2018-08-23T11:14:04.163Z,23.68
2018-08-23T11:15:04.150Z,23.68
2018-08-23T11:16:04.208Z,23.69
2018-08-23T11:17:04.318Z,23.68
2018-08-23T11:18:04.420Z,23.68
2018-08-23T11:19:04.201Z,23.68
2018-08-23T11:20:04.025Z,23.68
2018-08-23T11:21:04.384Z,23.68
2018-08-23T11:22:04.152Z,23.68
2018-08-23T11:23:04.674Z,23.65
2018-08-23T11:24:04.791Z,23.65
2018-08-23T11:25:04.220Z,23.66
2018-08-23T11:26:04.336Z,23.65
2018-08-23T11:27:04.259Z,23.65
2018-08-23T11:28:04.357Z,23.66
2018-08-23T11:29:04.223Z,23.65
2018-08-23T11:30:04.369Z,23.64
2018-08-23T11:31:04.256Z,23.64
2018-08-23T11:32:04.461Z,23.64
2018-08-23T11:33:04.111Z,23.64
2018-08-23T11:34:04.127Z,23.64
2018-08-23T11:35:04.278Z,23.64
2018-08-23T11:36:04.586Z,23.63
2018-08-23T11:37:04.239Z,23.63
2018-08-23T11:38:04.144Z,23.62
2018-08-23T11:39:04.062Z,23.61
2018-08-23T11:40:04.159Z,23.62
2018-08-23T11:41:04.247Z,23.62
2018-08-23T11:42:04.147Z,23.62
2018-08-23T11:43:04.284Z,23.62
2018-08-23T11:44:04.160Z,23.61
2018-08-23T11:45:04.150Z,23.6
2018-08-23T11:46:04.111Z,23.61
2018-08-23T11:47:04.290Z,23.62
2018-08-23T11:48:04.261Z,23.61
2018-08-23T11:49:04.206Z,23.61
2018-08-23T11:50:04.359Z,23.61
2018-08-23T11:51:04.361Z,23.6
2018-08-23T11:52:04.237Z,23.61
2018-08-23T11:53:04.269Z,23.62
2018-08-23T11:54:04.134Z,23.61
2018-08-23T11:55:04.032Z,23.6
2018-08-23T11:56:04.293Z,23.6
2018-08-23T11:57:04.163Z,23.59
2018-08-23T11:58:04.250Z,23.6
2018-08-23T11:59:04.628Z,23.6
2018-08-23T12:00:04.250Z,23.6
2018-08-23T12:01:04.184Z,23.61
2018-08-23T12:02:04.297Z,23.6
2018-08-23T12:03:04.434Z,23.6
2018-08-23T12:04:04.482Z,23.6
2018-08-23T12:05:04.347Z,23.6
2018-08-23T12:06:04.172Z,23.6
2018-08-23T12:07:04.244Z,23.61
2018-08-23T12:08:04.323Z,23.58
2018-08-23T12:09:04.292Z,23.62
2018-08-23T12:10:04.386Z,23.63
2018-08-23T12:11:04.182Z,23.63
2018-08-23T12:12:04.167Z,23.66
2018-08-23T12:13:04.126Z,23.66
2018-08-23T12:14:04.180Z,23.67
2018-08-23T12:15:04.377Z,23.68
2018-08-23T12:16:04.146Z,23.69
2018-08-23T12:17:04.198Z,23.7
2018-08-23T12:18:04.800Z,23.66
2018-08-23T12:19:04.506Z,23.67
2018-08-23T12:20:04.147Z,23.69
2018-08-23T12:21:04.107Z,23.7
2018-08-23T12:22:04.649Z,23.71
2018-08-23T12:23:04.264Z,23.72
2018-08-23T12:24:04.069Z,23.72
2018-08-23T12:25:04.184Z,23.72
2018-08-23T12:26:04.302Z,23.73
2018-08-23T12:27:04.435Z,23.73
2018-08-23T12:28:04.088Z,23.74
2018-08-23T12:29:04.166Z,23.73
2018-08-23T12:30:05.299Z,23.74
2018-08-23T12:31:04.128Z,23.75
2018-08-23T12:32:04.480Z,23.76
2018-08-23T12:33:06.625Z,23.76
2018-08-23T12:34:04.288Z,23.74
2018-08-23T12:35:04.750Z,23.75
2018-08-23T12:36:04.621Z,23.74
2018-08-23T12:37:04.165Z,23.73
2018-08-23T12:38:04.159Z,23.72
2018-08-23T12:39:04.217Z,23.71
2018-08-23T12:40:04.388Z,23.71
2018-08-23T12:41:04.448Z,23.7
2018-08-23T12:42:04.254Z,23.71
2018-08-23T12:43:04.276Z,23.72
2018-08-23T12:44:04.191Z,23.7
2018-08-23T12:45:04.259Z,23.7
2018-08-23T12:46:04.096Z,23.7
2018-08-23T12:47:04.114Z,23.71
2018-08-23T12:48:04.238Z,23.7
2018-08-23T12:49:04.294Z,23.68
2018-08-23T12:50:04.091Z,23.68
2018-08-23T12:51:04.052Z,23.67
2018-08-23T12:52:04.125Z,23.68
2018-08-23T12:53:04.044Z,23.68
2018-08-23T12:54:04.250Z,23.67
2018-08-23T12:55:04.143Z,23.68
2018-08-23T12:56:04.066Z,23.68
2018-08-23T12:57:04.113Z,23.67
2018-08-23T12:58:04.239Z,23.66